Impacts METAR Board
IDs:

KPHX - Phoenix/Sky Harbor, AZ, US

Updated at: 0800 UTC 24 May 2018
Potential Impact None Slight Moderate High
Time 23/20Z 23/21Z 23/22Z 23/23Z 24/00Z 24/01Z 24/02Z 24/03Z 24/04Z 24/05Z 24/06Z 24/07Z 24/08Z
Temp90 92 94 93 92 92 91 89 88 87 85 82 82
Dewpt32 29 29 30 30 31 31 30 30 28 30 30 27
Altim29.85 29.84 29.82 29.80 29.80 29.80 29.81 29.83 29.85 29.87 29.89 29.90 29.90
VIS10 10 10 10 10 10 10 10 10 10 10 10 10
CIG-- -- -- -- -- -- -- -- -- -- -- -- --
CoverCLRCLRCLRCLRCLRCLRCLRCLRCLRCLRCLRCLRCLR
FltCatVFRVFRVFRVFRVFRVFRVFRVFRVFRVFRVFRVFRVFR
WX--------------------------
WDir1801501701500300290300290270280270310
WSpd8 7 10 8 5 11 9 12 11 11 12 6 5
WGst-- -- 15 -- -- 18 -- -- -- -- -- -- --
Raw hourly METARs
KPHX 231951Z 18008KT 10SM CLR 32/00 A2985 RMK AO2 SLP091 T03220000
KPHX 232051Z 15007KT 10SM CLR 33/M02 A2984 RMK AO2 SLP085 T03331017 58013
KPHX 232151Z 17010G15KT 10SM CLR 34/M02 A2982 RMK AO2 SLP078 T03441017
KPHX 232251Z COR 15008KT 10SM CLR 34/M01 A2980 RMK AO2 SLP074 T03391011
KPHX 232351Z VRB05KT 10SM CLR 33/M01 A2980 RMK AO2 SLP073 T03331011 10350 20289 56013
KPHX 240051Z 30011G18KT 10SM CLR 33/M01 A2980 RMK AO2 SLP073 T03331006
KPHX 240151Z 29009KT 10SM CLR 33/M01 A2981 RMK AO2 SLP076 T03281006
KPHX 240251Z 30012KT 10SM CLR 32/M01 A2983 RMK AO2 SLP083 T03171011 53009
KPHX 240351Z 29011KT 10SM CLR 31/M01 A2985 RMK AO2 SLP088 T03111011
KPHX 240451Z 27011KT 10SM CLR 31/M02 A2987 RMK AO2 SLP097 T03061022
KPHX 240551Z 28012KT 10SM CLR 29/M01 A2989 RMK AO2 SLP102 T02941011 10339 20294 51019
KPHX 240651Z 27006KT 10SM CLR 28/M01 A2990 RMK AO2 SLP104 T02781011 403500211
KPHX 240751Z 31005KT 10SM CLR 28/M03 A2990 RMK AO2 SLP106 T02781028



Page loaded:  08:01 UTC  |   01:01 AM Pacific  |   02:01 AM Mountain  |   03:01 AM Central  |   04:01 AM Eastern

 

ADVISORIES

FORECASTS

FORECASTS

OBSERVATIONS

USER TOOLS

ABOUT US